createdAt,value
2022-08-29T00:00:06.716Z,98.00
2022-08-29T00:02:34.037Z,98.00
2022-08-29T00:05:03.454Z,98.20
2022-08-29T00:07:30.695Z,98.40
2022-08-29T00:09:57.876Z,98.50
2022-08-29T00:12:25.220Z,98.70
2022-08-29T00:14:54.817Z,98.80
2022-08-29T00:17:22.000Z,99.00
2022-08-29T00:19:49.128Z,99.10
2022-08-29T00:22:16.361Z,99.20
2022-08-29T00:24:43.669Z,99.50
2022-08-29T00:27:10.855Z,99.40
2022-08-29T00:29:38.093Z,99.60
2022-08-29T00:32:05.737Z,99.50
2022-08-29T00:34:33.040Z,99.90
2022-08-29T00:37:00.405Z,99.90
2022-08-29T00:39:28.076Z,99.90
2022-08-29T00:42:15.251Z,99.90
2022-08-29T00:44:42.413Z,99.90
2022-08-29T00:47:16.128Z,99.90
2022-08-29T00:49:48.745Z,99.90
2022-08-29T00:52:39.756Z,99.90
2022-08-29T00:55:13.490Z,99.90
2022-08-29T00:57:48.137Z,99.90
2022-08-29T01:00:17.973Z,99.90
2022-08-29T01:02:47.733Z,99.90
2022-08-29T01:05:19.953Z,99.90
2022-08-29T01:07:48.717Z,99.90
2022-08-29T01:10:35.619Z,99.90
2022-08-29T01:13:05.518Z,99.90
2022-08-29T01:15:34.382Z,99.90
2022-08-29T01:18:03.896Z,99.90
2022-08-29T01:20:46.778Z,99.90
2022-08-29T01:23:24.041Z,99.90
2022-08-29T01:25:52.872Z,99.90
2022-08-29T01:28:32.536Z,99.90
2022-08-29T01:31:37.278Z,99.90
2022-08-29T01:34:05.617Z,99.90
2022-08-29T01:36:53.676Z,99.90
2022-08-29T01:39:28.974Z,99.90
2022-08-29T01:41:58.722Z,99.90
2022-08-29T01:44:26.502Z,99.90
2022-08-29T01:47:02.491Z,99.90
2022-08-29T01:49:38.464Z,99.90
2022-08-29T01:52:08.981Z,99.90
2022-08-29T01:54:36.601Z,99.90
2022-08-29T01:57:04.290Z,99.90
2022-08-29T01:59:32.565Z,99.90
2022-08-29T02:02:11.543Z,99.90
2022-08-29T02:04:41.082Z,99.90
2022-08-29T02:07:12.019Z,99.90
2022-08-29T02:09:45.530Z,99.90
2022-08-29T02:12:15.336Z,99.90
2022-08-29T02:14:43.548Z,99.90
2022-08-29T02:17:11.194Z,99.90
2022-08-29T02:19:39.869Z,99.90
2022-08-29T02:22:07.709Z,99.90
2022-08-29T02:24:35.078Z,99.90
2022-08-29T02:27:02.943Z,99.90
2022-08-29T02:29:30.887Z,99.90
2022-08-29T02:32:12.195Z,99.90
2022-08-29T02:34:42.036Z,99.90
2022-08-29T02:37:12.803Z,99.90
2022-08-29T02:39:40.021Z,99.90
2022-08-29T02:42:07.496Z,99.90
2022-08-29T02:44:35.011Z,99.90
2022-08-29T02:47:02.241Z,99.90
2022-08-29T02:49:30.254Z,99.90
2022-08-29T02:51:57.931Z,99.90
2022-08-29T02:54:25.085Z,99.90
2022-08-29T02:56:52.443Z,99.90
2022-08-29T02:59:19.669Z,99.90
2022-08-29T03:01:47.204Z,99.90
2022-08-29T03:04:34.195Z,99.90
2022-08-29T03:07:01.435Z,99.90
2022-08-29T03:09:28.726Z,99.90
2022-08-29T03:11:56.752Z,99.90
2022-08-29T03:14:26.003Z,99.90
2022-08-29T03:16:53.735Z,99.90
2022-08-29T03:19:21.057Z,99.90
2022-08-29T03:21:48.285Z,99.90
2022-08-29T03:24:15.955Z,99.90
2022-08-29T03:26:56.592Z,99.90
2022-08-29T03:29:25.071Z,99.90
2022-08-29T03:31:52.426Z,99.90
2022-08-29T03:34:20.594Z,99.90
2022-08-29T03:36:47.803Z,99.90
2022-08-29T03:39:15.057Z,99.90
2022-08-29T03:41:42.718Z,99.90
2022-08-29T03:44:10.065Z,99.90
2022-08-29T03:46:39.321Z,99.90
2022-08-29T03:49:08.341Z,99.90
2022-08-29T03:51:39.044Z,99.90
2022-08-29T03:54:07.013Z,99.90
2022-08-29T03:56:34.741Z,99.90
2022-08-29T03:59:01.997Z,99.90
2022-08-29T04:01:29.950Z,99.90
2022-08-29T04:03:58.862Z,99.90
2022-08-29T04:06:30.111Z,99.90
2022-08-29T04:08:59.160Z,99.90
2022-08-29T04:11:28.346Z,99.90
2022-08-29T04:13:55.696Z,99.90
2022-08-29T04:16:30.739Z,99.90
2022-08-29T04:18:58.990Z,99.90
2022-08-29T04:21:26.151Z,99.90
2022-08-29T04:23:54.598Z,99.90
2022-08-29T04:26:38.075Z,99.90
2022-08-29T04:29:07.918Z,99.90
2022-08-29T04:31:36.735Z,99.90
2022-08-29T04:34:07.274Z,99.90
2022-08-29T04:36:36.749Z,99.90
2022-08-29T04:39:05.383Z,99.90
2022-08-29T04:41:33.553Z,99.90
2022-08-29T04:44:01.949Z,99.90
2022-08-29T04:46:29.269Z,99.90
2022-08-29T04:49:00.562Z,99.90
2022-08-29T04:51:30.568Z,99.90
2022-08-29T04:53:57.719Z,99.90
2022-08-29T04:56:25.220Z,99.90
2022-08-29T04:58:52.525Z,99.90
2022-08-29T05:01:24.454Z,99.90
2022-08-29T05:03:55.552Z,99.90
2022-08-29T05:06:24.514Z,99.90
2022-08-29T05:08:55.077Z,99.90
2022-08-29T05:11:28.675Z,99.90
2022-08-29T05:13:55.946Z,99.90
2022-08-29T05:16:25.747Z,99.90
2022-08-29T05:18:55.883Z,99.90
2022-08-29T05:21:34.961Z,99.90
2022-08-29T05:24:09.959Z,99.90
2022-08-29T05:26:43.702Z,99.90
2022-08-29T05:29:13.003Z,99.90
2022-08-29T05:31:44.535Z,99.90
2022-08-29T05:34:34.812Z,99.90
2022-08-29T05:37:02.170Z,99.90
2022-08-29T05:39:29.774Z,99.90
2022-08-29T05:41:58.829Z,99.90
2022-08-29T05:44:35.089Z,99.90
2022-08-29T05:47:04.905Z,99.90
2022-08-29T05:49:43.829Z,99.90
2022-08-29T05:52:17.359Z,99.90
2022-08-29T05:54:46.072Z,99.90
2022-08-29T05:57:19.319Z,99.90
2022-08-29T06:00:25.543Z,99.90
2022-08-29T06:02:55.065Z,99.90
2022-08-29T06:06:18.845Z,99.90
2022-08-29T06:08:46.836Z,99.90
2022-08-29T06:11:30.237Z,99.90
2022-08-29T06:13:59.452Z,99.90
2022-08-29T06:16:29.351Z,99.90
2022-08-29T06:18:57.427Z,99.90
2022-08-29T06:21:25.039Z,99.90
2022-08-29T06:23:52.668Z,99.90
2022-08-29T06:26:20.365Z,99.90
2022-08-29T06:28:48.657Z,99.90
2022-08-29T06:31:28.278Z,99.90
2022-08-29T06:34:00.072Z,99.90
2022-08-29T06:36:29.912Z,99.90
2022-08-29T06:38:59.833Z,99.90
2022-08-29T06:41:28.128Z,99.90
2022-08-29T06:43:57.187Z,99.90
2022-08-29T06:46:30.063Z,99.90
2022-08-29T06:49:00.444Z,99.90
2022-08-29T06:51:36.032Z,99.90
2022-08-29T06:54:08.372Z,99.90
2022-08-29T06:56:38.555Z,99.90
2022-08-29T06:59:07.425Z,99.90
2022-08-29T07:01:35.908Z,99.90
2022-08-29T07:04:03.957Z,99.90
2022-08-29T07:06:32.945Z,99.90
2022-08-29T07:09:05.264Z,99.90
2022-08-29T07:11:37.707Z,99.90
2022-08-29T07:14:08.358Z,99.90
2022-08-29T07:16:36.804Z,99.90
2022-08-29T07:19:06.815Z,99.90
2022-08-29T07:21:34.434Z,99.90
2022-08-29T07:24:02.533Z,99.90
2022-08-29T07:26:51.516Z,99.90
2022-08-29T07:29:25.281Z,99.50
2022-08-29T07:31:53.598Z,99.20
2022-08-29T07:34:21.097Z,99.30
2022-08-29T07:36:48.785Z,99.10
2022-08-29T07:39:20.153Z,99.10
2022-08-29T07:46:29.659Z,97.40
2022-08-29T07:48:59.749Z,97.30
2022-08-29T07:51:28.348Z,97.10
2022-08-29T07:53:57.541Z,96.60
2022-08-29T07:56:41.465Z,96.20
2022-08-29T07:59:10.005Z,95.80
2022-08-29T08:02:57.137Z,95.80
2022-08-29T08:05:26.416Z,95.50
2022-08-29T08:07:57.186Z,96.00
2022-08-29T08:10:24.960Z,96.10
2022-08-29T08:12:52.113Z,96.10
2022-08-29T08:15:22.128Z,96.20
2022-08-29T08:17:49.544Z,96.10
2022-08-29T08:20:17.065Z,95.90
2022-08-29T08:22:46.950Z,95.80
2022-08-29T08:25:14.276Z,95.70
2022-08-29T08:27:43.485Z,95.80
2022-08-29T08:30:14.298Z,95.90
2022-08-29T08:32:46.402Z,95.90
2022-08-29T08:35:16.420Z,95.60
2022-08-29T08:37:44.452Z,95.50
2022-08-29T08:40:27.043Z,95.20
2022-08-29T08:43:03.581Z,94.70
2022-08-29T08:45:44.987Z,94.40
2022-08-29T08:48:24.491Z,94.30
2022-08-29T08:51:06.953Z,94.10
2022-08-29T08:53:40.400Z,93.50
2022-08-29T08:56:19.659Z,93.50
2022-08-29T08:59:25.012Z,92.60
2022-08-29T09:02:17.076Z,92.30
2022-08-29T09:05:25.826Z,91.80
2022-08-29T09:08:08.322Z,92.20
2022-08-29T09:11:04.037Z,91.80
2022-08-29T09:14:14.636Z,91.30
2022-08-29T09:16:49.708Z,90.20
2022-08-29T09:19:17.835Z,89.70
2022-08-29T09:21:55.834Z,89.90
2022-08-29T09:24:46.822Z,88.80
2022-08-29T09:27:27.431Z,88.10
2022-08-29T09:30:07.518Z,89.00
2022-08-29T09:32:52.976Z,88.80
2022-08-29T09:35:34.629Z,88.00
2022-08-29T09:38:21.702Z,86.70
2022-08-29T09:41:00.511Z,85.90
2022-08-29T09:43:44.405Z,85.70
2022-08-29T09:46:12.232Z,84.80
2022-08-29T09:48:47.870Z,85.40
2022-08-29T09:51:28.798Z,85.00
2022-08-29T09:54:16.815Z,84.60
2022-08-29T09:56:58.568Z,85.10
2022-08-29T09:59:37.687Z,85.40
2022-08-29T10:02:44.132Z,85.20
2022-08-29T10:05:41.907Z,85.20
2022-08-29T10:08:36.571Z,83.10
2022-08-29T10:11:21.078Z,79.80
2022-08-29T10:14:17.800Z,80.40
2022-08-29T10:17:32.645Z,78.20
2022-08-29T10:20:00.017Z,78.50
2022-08-29T10:22:40.879Z,78.60
2022-08-29T10:25:34.178Z,74.20
2022-08-29T10:28:31.497Z,72.10
2022-08-29T10:31:19.405Z,69.70
2022-08-29T10:34:27.051Z,66.40
2022-08-29T10:37:24.001Z,66.40
2022-08-29T10:40:38.350Z,65.70
2022-08-29T10:43:36.058Z,65.40
2022-08-29T10:46:49.829Z,64.90
2022-08-29T10:49:52.710Z,63.30
2022-08-29T10:52:41.501Z,63.60
2022-08-29T10:55:30.561Z,62.90
2022-08-29T10:58:12.386Z,63.60
2022-08-29T11:01:10.483Z,63.90
2022-08-29T11:04:09.886Z,63.40
2022-08-29T11:06:47.499Z,62.60
2022-08-29T11:09:36.360Z,63.60
2022-08-29T11:12:19.083Z,63.60
2022-08-29T11:15:03.687Z,62.80
2022-08-29T11:17:39.125Z,62.80
2022-08-29T11:20:19.892Z,62.10
2022-08-29T11:23:30.627Z,61.50
2022-08-29T11:26:04.344Z,59.90
2022-08-29T11:31:43.000Z,60.30
2022-08-29T11:34:39.150Z,59.60
2022-08-29T11:37:29.285Z,59.10
2022-08-29T11:40:05.300Z,58.70
2022-08-29T11:42:54.459Z,59.10
2022-08-29T11:45:36.905Z,58.60
2022-08-29T11:48:34.240Z,57.90
2022-08-29T11:51:29.712Z,57.40
2022-08-29T11:54:29.006Z,56.80
2022-08-29T11:57:02.475Z,57.90
2022-08-29T11:59:56.780Z,57.40
2022-08-29T12:02:48.306Z,56.90
2022-08-29T12:05:20.894Z,57.10
2022-08-29T12:07:54.478Z,56.70
2022-08-29T12:10:26.742Z,56.60
2022-08-29T12:13:00.757Z,56.30
2022-08-29T12:15:27.840Z,56.10
2022-08-29T12:18:08.262Z,56.50
2022-08-29T12:20:45.697Z,56.50
2022-08-29T12:23:30.230Z,56.20
2022-08-29T12:26:22.925Z,55.90
2022-08-29T12:29:02.085Z,55.40
2022-08-29T12:32:18.797Z,54.80
2022-08-29T12:35:23.999Z,55.10
2022-08-29T12:38:25.205Z,54.30
2022-08-29T12:41:27.618Z,53.90
2022-08-29T12:44:03.980Z,53.70
2022-08-29T12:46:44.695Z,53.80
2022-08-29T12:49:26.989Z,53.10
2022-08-29T12:52:03.823Z,53.10
2022-08-29T12:54:38.543Z,53.20
2022-08-29T12:57:22.668Z,53.20
2022-08-29T12:59:54.267Z,52.90
2022-08-29T13:02:36.611Z,54.20
2022-08-29T13:05:28.907Z,53.50
2022-08-29T13:08:02.831Z,53.50
2022-08-29T13:10:30.751Z,53.40
2022-08-29T13:13:25.902Z,53.20
2022-08-29T13:15:57.429Z,51.90
2022-08-29T13:18:25.311Z,52.30
2022-08-29T13:21:22.267Z,51.70
2022-08-29T13:24:05.088Z,52.00
2022-08-29T13:26:34.936Z,52.10
2022-08-29T13:29:44.189Z,52.50
2022-08-29T13:32:24.056Z,51.90
2022-08-29T13:35:18.918Z,51.50
2022-08-29T13:38:16.676Z,50.40
2022-08-29T13:40:50.726Z,50.90
2022-08-29T13:43:42.224Z,50.00
2022-08-29T13:46:26.582Z,50.50
2022-08-29T13:49:04.946Z,50.30
2022-08-29T13:51:32.133Z,50.30
2022-08-29T13:53:59.395Z,50.60
2022-08-29T13:56:34.029Z,49.50
2022-08-29T13:59:02.866Z,48.70
2022-08-29T14:02:06.912Z,49.40
2022-08-29T14:07:04.776Z,48.10
2022-08-29T14:09:45.687Z,48.20
2022-08-29T14:12:14.328Z,47.80
2022-08-29T14:14:43.743Z,48.30
2022-08-29T14:17:18.343Z,48.30
2022-08-29T14:19:47.525Z,48.20
2022-08-29T14:22:15.620Z,48.60
2022-08-29T14:24:43.568Z,48.60
2022-08-29T14:27:11.018Z,48.90
2022-08-29T14:29:38.551Z,49.00
2022-08-29T14:32:06.107Z,48.70
2022-08-29T14:34:33.362Z,48.40
2022-08-29T14:37:02.985Z,48.20
2022-08-29T14:39:30.599Z,47.70
2022-08-29T14:41:57.780Z,47.70
2022-08-29T14:44:25.314Z,47.20
2022-08-29T14:46:52.862Z,47.40
2022-08-29T14:49:20.782Z,47.40
2022-08-29T14:51:49.277Z,47.60
2022-08-29T14:54:18.350Z,47.60
2022-08-29T14:56:49.315Z,47.60
2022-08-29T14:59:22.964Z,47.30
2022-08-29T15:01:54.341Z,47.40
2022-08-29T15:04:35.056Z,47.20
2022-08-29T15:07:08.040Z,47.20
2022-08-29T15:09:36.125Z,47.10
2022-08-29T15:12:04.752Z,47.10
2022-08-29T15:14:36.868Z,47.40
2022-08-29T15:17:06.573Z,47.30
2022-08-29T15:22:23.496Z,47.70
2022-08-29T15:24:52.378Z,47.80
2022-08-29T15:27:27.081Z,47.80
2022-08-29T15:29:55.509Z,47.70
2022-08-29T15:32:22.891Z,48.00
2022-08-29T15:34:50.760Z,47.90
2022-08-29T15:37:20.915Z,48.00
2022-08-29T15:39:50.201Z,48.20
2022-08-29T15:42:28.789Z,48.10
2022-08-29T15:44:58.679Z,48.10
2022-08-29T15:47:26.412Z,47.90
2022-08-29T15:49:54.943Z,47.90
2022-08-29T15:52:22.375Z,48.10
2022-08-29T15:54:49.643Z,48.40
2022-08-29T15:57:17.306Z,48.60
2022-08-29T15:59:57.526Z,49.00
2022-08-29T16:02:25.338Z,49.20
2022-08-29T16:04:56.671Z,49.50
2022-08-29T16:07:28.888Z,49.90
2022-08-29T16:10:01.468Z,50.00
2022-08-29T16:12:31.129Z,50.10
2022-08-29T16:14:59.942Z,50.10
2022-08-29T16:17:29.920Z,49.90
2022-08-29T16:19:58.520Z,49.80
2022-08-29T16:22:29.644Z,49.60
2022-08-29T16:24:57.330Z,49.60
2022-08-29T16:27:24.951Z,49.60
2022-08-29T16:29:53.999Z,49.70
2022-08-29T16:32:21.692Z,49.90
2022-08-29T16:34:48.821Z,49.90
2022-08-29T16:37:16.355Z,50.50
2022-08-29T16:39:43.721Z,50.00
2022-08-29T16:42:12.715Z,50.00
2022-08-29T16:44:40.833Z,50.00
2022-08-29T16:47:08.354Z,50.00
2022-08-29T16:49:35.952Z,50.10
2022-08-29T16:52:05.420Z,50.10
2022-08-29T16:54:33.037Z,49.90
2022-08-29T16:57:00.477Z,50.00
2022-08-29T16:59:28.015Z,49.70
2022-08-29T17:01:55.905Z,49.70
2022-08-29T17:04:30.664Z,49.70
2022-08-29T17:06:59.176Z,49.50
2022-08-29T17:09:26.610Z,49.50
2022-08-29T17:11:56.273Z,49.40
2022-08-29T17:14:25.986Z,49.30
2022-08-29T17:16:55.854Z,49.50
2022-08-29T17:19:24.332Z,49.50
2022-08-29T17:21:52.595Z,49.30
2022-08-29T17:24:21.438Z,49.00
2022-08-29T17:26:49.303Z,49.30
2022-08-29T17:29:17.187Z,48.60
2022-08-29T17:31:44.886Z,48.60
2022-08-29T17:34:13.019Z,48.60
2022-08-29T17:36:43.843Z,48.60
2022-08-29T17:39:13.173Z,48.70
2022-08-29T17:41:43.319Z,48.80
2022-08-29T17:44:13.242Z,49.00
2022-08-29T17:46:40.863Z,49.20
2022-08-29T17:49:10.763Z,49.40
2022-08-29T17:51:39.854Z,49.50
2022-08-29T17:54:14.725Z,49.60
2022-08-29T17:56:59.102Z,50.00
2022-08-29T17:59:33.040Z,50.20
2022-08-29T18:02:01.161Z,50.40
2022-08-29T18:04:29.615Z,50.50
2022-08-29T18:06:57.805Z,51.10
2022-08-29T18:09:28.966Z,50.50
2022-08-29T18:11:58.483Z,50.70
2022-08-29T18:14:27.395Z,50.90
2022-08-29T18:16:55.985Z,51.10
2022-08-29T18:19:24.904Z,51.20
2022-08-29T18:21:53.693Z,51.90
2022-08-29T18:24:22.080Z,51.50
2022-08-29T18:26:50.925Z,51.70
2022-08-29T18:29:18.995Z,51.70
2022-08-29T18:31:46.356Z,52.00
2022-08-29T18:34:15.454Z,52.20
2022-08-29T18:36:45.951Z,52.60
2022-08-29T18:39:16.525Z,52.70
2022-08-29T18:41:44.860Z,52.80
2022-08-29T18:44:13.045Z,53.00
2022-08-29T18:46:48.071Z,53.10
2022-08-29T18:49:17.077Z,53.30
2022-08-29T18:51:44.686Z,53.60
2022-08-29T18:54:15.141Z,53.90
2022-08-29T18:56:44.825Z,54.00
2022-08-29T18:59:12.851Z,54.20
2022-08-29T19:01:42.988Z,54.40
2022-08-29T19:04:10.338Z,54.50
2022-08-29T19:06:37.652Z,54.90
2022-08-29T19:09:04.993Z,54.80
2022-08-29T19:11:32.252Z,54.90
2022-08-29T19:13:59.576Z,55.10
2022-08-29T19:16:27.215Z,55.30
2022-08-29T19:18:54.607Z,55.40
2022-08-29T19:21:21.972Z,55.50
2022-08-29T19:23:52.119Z,55.60
2022-08-29T19:26:32.766Z,55.70
2022-08-29T19:29:06.666Z,55.70
2022-08-29T19:31:34.170Z,55.90
2022-08-29T19:34:01.561Z,55.90
2022-08-29T19:36:29.149Z,56.00
2022-08-29T19:38:56.823Z,56.20
2022-08-29T19:41:25.046Z,56.20
2022-08-29T19:43:53.449Z,56.40
2022-08-29T19:46:23.907Z,56.60
2022-08-29T19:48:52.675Z,56.70
2022-08-29T19:51:24.725Z,56.80
2022-08-29T19:53:54.053Z,57.10
2022-08-29T19:56:21.254Z,57.30
2022-08-29T19:58:49.401Z,57.50
2022-08-29T20:01:17.982Z,57.90
2022-08-29T20:03:54.691Z,58.10
2022-08-29T20:06:21.973Z,58.40
2022-08-29T20:08:50.260Z,58.60
2022-08-29T20:11:23.217Z,59.00
2022-08-29T20:13:53.820Z,59.50
2022-08-29T20:16:28.751Z,59.80
2022-08-29T20:18:56.294Z,60.10
2022-08-29T20:21:24.707Z,60.30
2022-08-29T20:23:57.589Z,60.60
2022-08-29T20:26:28.544Z,61.00
2022-08-29T20:28:58.548Z,61.20
2022-08-29T20:31:26.550Z,61.40
2022-08-29T20:33:54.036Z,61.90
2022-08-29T20:36:42.865Z,62.10
2022-08-29T20:39:18.222Z,62.60
2022-08-29T20:41:55.721Z,62.90
2022-08-29T20:44:33.538Z,63.60
2022-08-29T20:47:01.482Z,63.60
2022-08-29T20:49:28.664Z,63.80
2022-08-29T20:51:56.006Z,64.20
2022-08-29T20:54:25.123Z,64.50
2022-08-29T20:56:54.091Z,64.80
2022-08-29T20:59:26.536Z,65.20
2022-08-29T21:01:55.799Z,65.60
2022-08-29T21:04:42.089Z,65.80
2022-08-29T21:07:14.921Z,66.40
2022-08-29T21:09:46.489Z,67.10
2022-08-29T21:12:15.640Z,67.40
2022-08-29T21:14:42.921Z,68.00
2022-08-29T21:17:13.113Z,68.30
2022-08-29T21:19:40.840Z,68.90
2022-08-29T21:22:11.495Z,69.20
2022-08-29T21:24:39.451Z,69.70
2022-08-29T21:27:06.829Z,70.00
2022-08-29T21:29:37.259Z,70.30
2022-08-29T21:32:04.746Z,71.10
2022-08-29T21:34:32.281Z,71.60
2022-08-29T21:36:59.468Z,72.30
2022-08-29T21:39:28.170Z,72.60
2022-08-29T21:41:57.248Z,73.30
2022-08-29T21:44:24.523Z,73.70
2022-08-29T21:46:52.894Z,74.00
2022-08-29T21:49:22.156Z,74.30
2022-08-29T21:51:50.484Z,74.80
2022-08-29T21:54:18.619Z,75.40
2022-08-29T21:56:47.544Z,75.80
2022-08-29T21:59:17.894Z,76.80
2022-08-29T22:01:46.858Z,77.00
2022-08-29T22:04:28.538Z,77.50
2022-08-29T22:06:59.259Z,78.20
2022-08-29T22:09:28.122Z,78.40
2022-08-29T22:11:56.283Z,78.60
2022-08-29T22:14:46.371Z,79.10
2022-08-29T22:17:14.457Z,79.00
2022-08-29T22:19:42.258Z,79.20
2022-08-29T22:22:09.739Z,79.10
2022-08-29T22:24:37.663Z,79.40
2022-08-29T22:27:05.154Z,79.60
2022-08-29T22:29:33.606Z,80.00
2022-08-29T22:32:00.806Z,80.40
2022-08-29T22:34:28.007Z,80.60
2022-08-29T22:36:56.369Z,80.80
2022-08-29T22:39:23.780Z,81.10
2022-08-29T22:41:51.345Z,81.30
2022-08-29T22:47:06.267Z,81.50
2022-08-29T22:49:33.703Z,81.60
2022-08-29T22:52:01.901Z,82.10
2022-08-29T22:54:35.138Z,82.70
2022-08-29T22:57:09.456Z,83.20
2022-08-29T22:59:39.015Z,83.70
2022-08-29T23:02:07.969Z,84.50
2022-08-29T23:04:36.575Z,84.80
2022-08-29T23:07:05.688Z,85.40
2022-08-29T23:09:35.305Z,86.10
2022-08-29T23:12:06.075Z,86.50
2022-08-29T23:14:36.232Z,87.10
2022-08-29T23:17:05.883Z,87.60
2022-08-29T23:19:33.694Z,88.40
2022-08-29T23:22:02.273Z,88.90
2022-08-29T23:24:30.209Z,89.40
2022-08-29T23:26:57.396Z,90.00
2022-08-29T23:29:24.754Z,90.30
2022-08-29T23:31:51.933Z,90.50
2022-08-29T23:34:19.270Z,90.80
2022-08-29T23:36:46.470Z,91.10
2022-08-29T23:39:13.681Z,91.30
2022-08-29T23:41:41.101Z,91.50
2022-08-29T23:44:08.562Z,91.80
2022-08-29T23:46:38.124Z,92.30
2022-08-29T23:49:07.094Z,92.50
2022-08-29T23:51:34.625Z,92.80
2022-08-29T23:54:02.028Z,92.90
2022-08-29T23:56:29.379Z,93.10
2022-08-29T23:58:57.075Z,93.30
